Time;durP1;ratioP1;P1;durP2;ratioP2;P2;SDS_P1;SDS_P2;PMS_P1;PMS_P2;Temp;Humidity;BMP_temperature;BMP_pressure;BME280_temperature;BME280_humidity;BME280_pressure;Samples;Min_cycle;Max_cycle;Signal;HPM_P1;HPM_P2
2021/09/25 00:01:37;;;;;;;10.40;5.05;;;;;;;;;;10445308;28;20797;-71
2021/09/25 00:06:41;;;;;;;11.10;5.63;;;;;;;;;;10444902;28;20068;-70
2021/09/25 00:11:44;;;;;;;10.80;4.90;;;;;;;;;;10442238;28;20098;-71
2021/09/25 00:16:47;;;;;;;9.40;4.10;;;;;;;;;;10438607;28;20056;-71
2021/09/25 00:21:51;;;;;;;8.70;4.00;;;;;;;;;;10444176;28;20045;-72
2021/09/25 00:26:54;;;;;;;12.32;4.90;;;;;;;;;;10435525;28;20409;-72
2021/09/25 00:31:57;;;;;;;13.38;5.80;;;;;;;;;;10437840;28;20069;-68
2021/09/25 00:37:01;;;;;;;11.43;4.53;;;;;;;;;;10436986;28;20037;-71
2021/09/25 00:42:04;;;;;;;13.10;4.90;;;;;;;;;;10439501;28;20049;-70
2021/09/25 00:47:07;;;;;;;11.93;4.90;;;;;;;;;;10438781;28;20033;-71
2021/09/25 00:52:13;;;;;;;9.13;4.43;;;;;;;;;;10438099;28;20107;-71
2021/09/25 00:57:16;;;;;;;11.23;4.75;;;;;;;;;;10440382;28;20051;-71
2021/09/25 01:02:19;;;;;;;13.75;5.65;;;;;;;;;;10441813;28;20451;-72
2021/09/25 01:07:24;;;;;;;10.75;5.22;;;;;;;;;;10443719;28;20184;-72
2021/09/25 01:12:30;;;;;;;9.73;4.28;;;;;;;;;;10439799;28;20497;-72
2021/09/25 01:17:36;;;;;;;10.75;5.05;;;;;;;;;;10434683;28;20124;-72
2021/09/25 01:22:45;;;;;;;8.65;4.47;;;;;;;;;;10434303;28;20083;-72
2021/09/25 01:28:08;;;;;;;10.90;4.90;;;;;;;;;;10438301;28;20049;-72
2021/09/25 01:33:11;;;;;;;10.48;4.53;;;;;;;;;;10443178;28;20049;-72
2021/09/25 01:38:15;;;;;;;10.77;4.72;;;;;;;;;;10442250;28;20048;-70
2021/09/25 01:43:18;;;;;;;9.32;4.47;;;;;;;;;;10436876;28;20128;-73
2021/09/25 01:48:20;;;;;;;9.70;4.90;;;;;;;;;;10432408;28;20103;-72
2021/09/25 01:53:25;;;;;;;11.07;4.78;;;;;;;;;;10438465;28;20045;-69
2021/09/25 01:58:27;;;;;;;12.57;4.93;;;;;;;;;;10440897;28;20104;-71
2021/09/25 02:03:35;;;;;;;11.40;4.60;;;;;;;;;;10440551;28;20504;-71
2021/09/25 02:08:40;;;;;;;10.10;4.18;;;;;;;;;;10438368;28;20152;-72
2021/09/25 02:13:43;;;;;;;9.48;4.65;;;;;;;;;;10435121;28;20069;-71
2021/09/25 02:18:46;;;;;;;10.43;4.87;;;;;;;;;;10442629;28;20052;-73
2021/09/25 02:23:50;;;;;;;10.25;4.97;;;;;;;;;;10441101;28;20099;-73
2021/09/25 02:28:53;;;;;;;10.80;4.30;;;;;;;;;;10434528;28;20068;-72
2021/09/25 02:33:55;;;;;;;13.43;4.72;;;;;;;;;;10438337;28;20041;-72
2021/09/25 02:39:01;;;;;;;10.68;4.03;;;;;;;;;;10440246;28;20501;-72
2021/09/25 02:44:04;;;;;;;9.23;4.65;;;;;;;;;;10430030;28;20053;-71
2021/09/25 02:49:07;;;;;;;9.13;4.50;;;;;;;;;;10439101;28;20374;-71
2021/09/25 02:54:11;;;;;;;8.75;4.45;;;;;;;;;;10438731;28;20532;-70
2021/09/25 02:59:14;;;;;;;8.23;4.35;;;;;;;;;;10439774;28;20041;-71
2021/09/25 03:04:19;;;;;;;10.00;4.13;;;;;;;;;;10433543;28;20041;-72
2021/09/25 03:09:24;;;;;;;11.10;4.40;;;;;;;;;;10439888;28;20041;-72
2021/09/25 03:14:26;;;;;;;9.63;4.07;;;;;;;;;;10436358;28;20511;-72
2021/09/25 03:19:29;;;;;;;11.38;4.38;;;;;;;;;;10440744;28;20497;-72
2021/09/25 03:24:33;;;;;;;9.40;4.47;;;;;;;;;;10446053;28;20041;-71
2021/09/25 03:29:36;;;;;;;7.88;3.75;;;;;;;;;;10448214;28;20072;-71
2021/09/25 03:34:39;;;;;;;8.95;3.83;;;;;;;;;;10445973;28;20033;-69
2021/09/25 03:39:43;;;;;;;8.70;3.47;;;;;;;;;;10457126;28;20053;-71
2021/09/25 03:44:46;;;;;;;8.65;4.30;;;;;;;;;;10445413;28;20049;-71
2021/09/25 03:49:49;;;;;;;8.95;4.10;;;;;;;;;;10442952;28;20433;-71
2021/09/25 03:54:53;;;;;;;6.35;2.85;;;;;;;;;;10442316;28;20081;-72
2021/09/25 03:59:56;;;;;;;9.60;3.97;;;;;;;;;;10442496;28;20129;-72
2021/09/25 04:04:58;;;;;;;11.27;4.13;;;;;;;;;;10438979;28;20478;-70
2021/09/25 04:10:04;;;;;;;13.70;4.53;;;;;;;;;;10443996;28;20505;-68
2021/09/25 04:15:08;;;;;;;8.27;4.00;;;;;;;;;;10440558;28;20064;-70
2021/09/25 04:20:11;;;;;;;7.82;3.90;;;;;;;;;;10440546;28;20146;-71
2021/09/25 04:25:16;;;;;;;12.37;4.20;;;;;;;;;;10438949;28;20037;-71
2021/09/25 04:30:19;;;;;;;6.85;3.40;;;;;;;;;;10445142;28;20052;-68
2021/09/25 04:35:22;;;;;;;8.65;4.07;;;;;;;;;;10441257;28;20044;-73
2021/09/25 04:40:26;;;;;;;7.60;3.85;;;;;;;;;;10442186;28;20048;-72
2021/09/25 04:45:29;;;;;;;8.07;3.25;;;;;;;;;;10441282;28;20105;-72
2021/09/25 04:50:32;;;;;;;8.48;4.20;;;;;;;;;;10439440;28;20545;-71
2021/09/25 04:55:37;;;;;;;8.73;3.63;;;;;;;;;;10442469;28;20950;-72
2021/09/25 05:00:40;;;;;;;7.68;3.60;;;;;;;;;;10436718;28;20049;-71
2021/09/25 05:05:43;;;;;;;6.32;2.55;;;;;;;;;;10441710;28;20117;-71
2021/09/25 05:10:47;;;;;;;7.82;3.70;;;;;;;;;;10442116;28;20217;-71
2021/09/25 05:15:50;;;;;;;6.35;3.53;;;;;;;;;;10440113;28;20037;-72
2021/09/25 05:20:53;;;;;;;6.32;3.22;;;;;;;;;;10441513;28;20045;-73
2021/09/25 05:25:57;;;;;;;8.43;3.67;;;;;;;;;;10439177;28;20063;-71
2021/09/25 05:31:00;;;;;;;7.00;3.78;;;;;;;;;;10439983;28;20072;-71
2021/09/25 05:36:03;;;;;;;7.60;3.83;;;;;;;;;;10441326;28;20037;-72
2021/09/25 05:41:07;;;;;;;9.80;4.15;;;;;;;;;;10437854;28;20403;-72
2021/09/25 05:46:10;;;;;;;9.50;3.60;;;;;;;;;;10433164;28;20119;-72
2021/09/25 05:51:13;;;;;;;11.57;3.67;;;;;;;;;;10440173;28;20115;-72
2021/09/25 05:56:17;;;;;;;8.73;3.90;;;;;;;;;;10441749;28;20072;-71
2021/09/25 06:01:20;;;;;;;7.80;3.75;;;;;;;;;;10434168;28;20076;-72
2021/09/25 06:06:23;;;;;;;8.88;3.88;;;;;;;;;;10439674;28;20033;-72
2021/09/25 06:11:27;;;;;;;9.97;4.13;;;;;;;;;;10431661;28;20053;-69
2021/09/25 06:16:30;;;;;;;8.40;3.70;;;;;;;;;;10435834;28;20068;-71
2021/09/25 06:21:34;;;;;;;6.07;3.10;;;;;;;;;;10437488;28;20037;-71
2021/09/25 06:26:38;;;;;;;7.30;3.50;;;;;;;;;;10439539;28;20044;-72
2021/09/25 06:31:42;;;;;;;8.07;3.20;;;;;;;;;;10435297;28;20575;-71
2021/09/25 06:36:45;;;;;;;5.68;3.55;;;;;;;;;;10439618;28;20515;-72
2021/09/25 06:41:49;;;;;;;6.53;3.78;;;;;;;;;;10440050;28;20091;-72
2021/09/25 06:46:52;;;;;;;5.40;3.53;;;;;;;;;;10436324;28;20037;-70
2021/09/25 06:51:55;;;;;;;8.75;3.63;;;;;;;;;;10437474;28;20041;-72
2021/09/25 06:56:59;;;;;;;9.18;4.60;;;;;;;;;;10444868;28;20040;-71
2021/09/25 07:02:02;;;;;;;7.63;3.95;;;;;;;;;;10441644;28;20045;-72
2021/09/25 07:07:05;;;;;;;6.60;3.90;;;;;;;;;;10448111;28;20033;-74
2021/09/25 07:12:10;;;;;;;6.65;3.70;;;;;;;;;;10446441;28;20045;-74
2021/09/25 07:17:13;;;;;;;8.48;3.90;;;;;;;;;;10441367;28;20071;-71
2021/09/25 07:22:16;;;;;;;5.35;3.70;;;;;;;;;;10445688;28;20049;-73
2021/09/25 07:27:20;;;;;;;6.40;3.45;;;;;;;;;;10442374;28;20068;-73
2021/09/25 07:32:23;;;;;;;5.90;3.70;;;;;;;;;;10444236;28;20351;-72
2021/09/25 07:37:26;;;;;;;5.25;3.60;;;;;;;;;;10443965;28;20080;-72
2021/09/25 07:42:30;;;;;;;5.10;3.40;;;;;;;;;;10442872;28;20068;-72
2021/09/25 07:47:33;;;;;;;6.55;3.45;;;;;;;;;;10435292;28;20048;-73
2021/09/25 07:52:39;;;;;;;5.97;3.70;;;;;;;;;;10438792;28;20033;-74
2021/09/25 07:57:43;;;;;;;7.70;3.72;;;;;;;;;;10442697;28;20048;-71
2021/09/25 08:02:46;;;;;;;5.70;3.78;;;;;;;;;;10444685;28;20492;-73
2021/09/25 08:07:50;;;;;;;6.53;3.55;;;;;;;;;;10443147;28;20045;-72
2021/09/25 08:12:54;;;;;;;6.38;3.90;;;;;;;;;;10446329;28;20044;-73
2021/09/25 08:18:12;;;;;;;4.90;3.30;;;;;;;;;;10443922;28;20041;-72
2021/09/25 08:23:15;;;;;;;4.93;3.42;;;;;;;;;;10443984;28;20034;-72
2021/09/25 08:28:19;;;;;;;4.70;3.30;;;;;;;;;;10442066;28;20072;-73
2021/09/25 08:33:22;;;;;;;6.43;3.60;;;;;;;;;;10456213;28;20056;-74
2021/09/25 08:38:24;;;;;;;4.53;3.63;;;;;;;;;;10444568;28;20093;-74
2021/09/25 08:43:29;;;;;;;5.18;3.55;;;;;;;;;;10434752;28;20076;-74
2021/09/25 08:48:32;;;;;;;4.05;3.30;;;;;;;;;;10440288;28;20128;-74
2021/09/25 08:53:35;;;;;;;5.97;4.15;;;;;;;;;;10441670;28;20496;-74
2021/09/25 08:58:44;;;;;;;4.00;3.60;;;;;;;;;;10444252;28;20037;-70
2021/09/25 09:03:47;;;;;;;5.57;4.15;;;;;;;;;;10438050;28;20075;-74
2021/09/25 09:08:51;;;;;;;6.82;4.28;;;;;;;;;;10443909;28;20506;-72
2021/09/25 09:13:58;;;;;;;5.68;4.60;;;;;;;;;;10438805;28;20519;-75
2021/09/25 09:19:01;;;;;;;4.70;3.78;;;;;;;;;;10449925;28;21389;-75
2021/09/25 09:24:05;;;;;;;6.40;4.05;;;;;;;;;;10441011;28;20552;-75
2021/09/25 09:29:10;;;;;;;4.78;3.83;;;;;;;;;;10443711;28;20072;-76
2021/09/25 09:34:16;;;;;;;5.20;3.90;;;;;;;;;;10441340;28;20033;-76
2021/09/25 09:39:19;;;;;;;4.35;3.80;;;;;;;;;;10439076;28;20048;-76
2021/09/25 09:44:25;;;;;;;4.05;3.55;;;;;;;;;;10432187;28;20358;-74
2021/09/25 09:49:31;;;;;;;5.53;3.90;;;;;;;;;;10440623;28;20052;-77
2021/09/25 09:54:35;;;;;;;6.32;3.92;;;;;;;;;;10443293;28;20060;-76
2021/09/25 09:59:40;;;;;;;4.15;3.75;;;;;;;;;;10450329;28;20053;-75
2021/09/25 10:04:43;;;;;;;5.22;3.90;;;;;;;;;;10442911;28;20594;-76
2021/09/25 10:09:46;;;;;;;4.97;3.83;;;;;;;;;;10437869;28;20037;-74
2021/09/25 10:14:50;;;;;;;4.63;3.95;;;;;;;;;;10444376;28;20083;-74
2021/09/25 10:19:53;;;;;;;3.90;3.50;;;;;;;;;;10440906;28;20304;-75
2021/09/25 10:24:56;;;;;;;8.27;4.10;;;;;;;;;;10440496;28;21029;-75
2021/09/25 10:30:03;;;;;;;9.63;4.40;;;;;;;;;;10445387;28;20095;-76
2021/09/25 10:35:07;;;;;;;4.75;3.78;;;;;;;;;;10445001;28;20098;-76
2021/09/25 10:40:12;;;;;;;4.75;3.35;;;;;;;;;;10450299;28;20037;-77
2021/09/25 10:45:23;;;;;;;3.88;3.50;;;;;;;;;;10445832;28;20503;-75
2021/09/25 10:50:27;;;;;;;4.00;3.13;;;;;;;;;;10447054;28;20037;-74
2021/09/25 10:55:30;;;;;;;4.47;3.47;;;;;;;;;;10448197;28;20052;-76
2021/09/25 11:00:46;;;;;;;4.28;3.42;;;;;;;;;;10449820;28;20416;-76
2021/09/25 11:06:03;;;;;;;4.40;3.75;;;;;;;;;;10428028;28;20575;-75
2021/09/25 11:11:07;;;;;;;4.78;3.72;;;;;;;;;;10440011;28;20041;-76
2021/09/25 11:16:11;;;;;;;4.13;3.45;;;;;;;;;;10444051;28;20105;-76
2021/09/25 11:21:15;;;;;;;5.82;3.53;;;;;;;;;;10440626;28;20513;-76
2021/09/25 11:26:18;;;;;;;3.85;3.10;;;;;;;;;;10441634;28;20537;-76
2021/09/25 11:31:22;;;;;;;4.28;3.63;;;;;;;;;;10428401;28;20132;-76
2021/09/25 11:36:27;;;;;;;3.97;3.33;;;;;;;;;;10435771;28;20127;-76
2021/09/25 11:41:30;;;;;;;3.97;3.25;;;;;;;;;;10446408;28;20099;-77
2021/09/25 11:46:34;;;;;;;3.88;3.33;;;;;;;;;;10435545;28;20421;-75
2021/09/25 11:51:38;;;;;;;3.45;3.15;;;;;;;;;;10436838;28;20052;-75
2021/09/25 11:56:41;;;;;;;3.38;3.08;;;;;;;;;;10440266;28;20041;-72
2021/09/25 12:01:46;;;;;;;3.50;3.20;;;;;;;;;;10437275;28;20037;-71
2021/09/25 12:06:53;;;;;;;5.13;3.10;;;;;;;;;;10461025;28;20048;-73
2021/09/25 12:11:56;;;;;;;8.93;6.82;;;;;;;;;;10444983;28;20041;-72
2021/09/25 12:17:04;;;;;;;4.30;3.20;;;;;;;;;;10440133;28;20057;-73
2021/09/25 12:22:08;;;;;;;4.18;3.38;;;;;;;;;;10445166;28;20079;-72
2021/09/25 12:27:11;;;;;;;4.07;3.10;;;;;;;;;;10444311;28;20045;-72
2021/09/25 12:32:20;;;;;;;3.17;2.88;;;;;;;;;;10444982;28;20041;-73
2021/09/25 12:37:22;;;;;;;3.17;2.88;;;;;;;;;;10445064;28;20405;-72
2021/09/25 12:42:27;;;;;;;5.57;3.75;;;;;;;;;;10442114;28;20055;-73
2021/09/25 12:47:31;;;;;;;5.47;3.72;;;;;;;;;;10438129;28;20444;-73
2021/09/25 12:52:36;;;;;;;4.57;3.00;;;;;;;;;;10457196;28;20363;-72
2021/09/25 12:57:39;;;;;;;6.32;3.00;;;;;;;;;;10450731;28;20075;-72
2021/09/25 13:02:43;;;;;;;4.13;2.90;;;;;;;;;;10445996;28;20120;-72
2021/09/25 13:07:47;;;;;;;3.90;2.90;;;;;;;;;;10446909;28;20441;-72
2021/09/25 13:12:51;;;;;;;4.03;2.63;;;;;;;;;;10458107;28;20508;-72
2021/09/25 13:17:56;;;;;;;3.85;2.92;;;;;;;;;;10436966;28;20052;-72
2021/09/25 13:23:00;;;;;;;4.00;2.90;;;;;;;;;;10441731;28;20136;-73
2021/09/25 13:28:05;;;;;;;7.50;3.00;;;;;;;;;;10443404;28;20090;-72
2021/09/25 13:33:13;;;;;;;5.38;2.92;;;;;;;;;;10444590;28;20124;-73
2021/09/25 13:38:16;;;;;;;3.72;3.05;;;;;;;;;;10440148;28;20063;-72
2021/09/25 13:43:19;;;;;;;3.63;2.88;;;;;;;;;;10431090;28;20045;-73
2021/09/25 13:48:23;;;;;;;6.47;3.00;;;;;;;;;;10437480;28;20040;-73
2021/09/25 13:53:26;;;;;;;7.20;3.17;;;;;;;;;;10434008;28;20052;-73
2021/09/25 13:58:29;;;;;;;4.85;2.80;;;;;;;;;;10441735;28;20052;-71
2021/09/25 14:03:33;;;;;;;4.68;2.90;;;;;;;;;;10439606;28;20049;-72
2021/09/25 14:08:37;;;;;;;4.35;2.75;;;;;;;;;;10441703;28;20162;-73
2021/09/25 14:13:40;;;;;;;4.68;2.63;;;;;;;;;;10432514;28;20041;-73
2021/09/25 14:18:46;;;;;;;3.60;2.80;;;;;;;;;;10444745;28;20103;-72
2021/09/25 14:23:50;;;;;;;6.43;2.97;;;;;;;;;;10437852;28;20523;-73
2021/09/25 14:28:53;;;;;;;6.50;3.13;;;;;;;;;;10440076;28;20513;-70
2021/09/25 14:33:57;;;;;;;4.15;2.78;;;;;;;;;;10437680;28;20271;-73
2021/09/25 14:39:00;;;;;;;4.35;2.83;;;;;;;;;;10433220;28;20037;-72
2021/09/25 14:44:03;;;;;;;4.00;2.92;;;;;;;;;;10428548;28;20136;-72
2021/09/25 14:49:08;;;;;;;5.07;3.10;;;;;;;;;;10438605;28;20099;-72
2021/09/25 14:54:10;;;;;;;5.93;2.67;;;;;;;;;;10437962;28;20382;-73
2021/09/25 14:59:13;;;;;;;3.83;2.72;;;;;;;;;;10436851;28;20390;-73
2021/09/25 15:04:18;;;;;;;6.22;2.60;;;;;;;;;;10442802;28;20080;-73
2021/09/25 15:09:20;;;;;;;4.28;2.60;;;;;;;;;;10441208;28;20369;-72
2021/09/25 15:14:26;;;;;;;7.72;3.42;;;;;;;;;;10439063;28;20106;-73
2021/09/25 15:19:31;;;;;;;4.13;2.80;;;;;;;;;;10445052;28;20112;-73
2021/09/25 15:24:38;;;;;;;4.40;3.08;;;;;;;;;;10444558;28;20053;-73
2021/09/25 15:29:41;;;;;;;5.55;3.00;;;;;;;;;;10448334;28;20124;-72
2021/09/25 15:34:45;;;;;;;5.78;3.05;;;;;;;;;;10447053;28;20292;-73
2021/09/25 15:39:48;;;;;;;4.35;3.20;;;;;;;;;;10445801;28;20098;-73
2021/09/25 15:44:52;;;;;;;5.68;2.70;;;;;;;;;;10442094;28;20549;-73
2021/09/25 15:49:56;;;;;;;5.70;2.90;;;;;;;;;;10443937;28;20044;-74
2021/09/25 15:54:59;;;;;;;5.95;2.78;;;;;;;;;;10445034;28;20468;-73
2021/09/25 16:00:02;;;;;;;5.30;2.78;;;;;;;;;;10438080;28;20041;-71
2021/09/25 16:05:08;;;;;;;7.70;3.20;;;;;;;;;;10447554;28;20037;-73
2021/09/25 16:10:11;;;;;;;4.00;2.72;;;;;;;;;;10444144;28;20400;-73
2021/09/25 16:15:14;;;;;;;4.65;2.72;;;;;;;;;;10440423;28;20056;-73
2021/09/25 16:20:19;;;;;;;4.63;2.85;;;;;;;;;;10445742;28;20437;-73
2021/09/25 16:25:22;;;;;;;9.07;3.53;;;;;;;;;;10441223;28;20128;-74
2021/09/25 16:30:25;;;;;;;7.70;3.42;;;;;;;;;;10437664;28;20049;-73
2021/09/25 16:35:28;;;;;;;;;;;;;;;;;;10442216;28;20103;-73
2021/09/25 16:40:32;;;;;;;10.13;4.03;;;;;;;;;;10443931;28;19943;-73
2021/09/25 16:45:35;;;;;;;10.48;4.28;;;;;;;;;;10445143;28;20123;-73
2021/09/25 16:50:38;;;;;;;5.53;3.38;;;;;;;;;;10443418;28;20044;-74
2021/09/25 16:55:42;;;;;;;7.25;3.47;;;;;;;;;;10438599;28;20076;-74
2021/09/25 17:00:45;;;;;;;7.85;2.97;;;;;;;;;;10442224;28;20037;-73
2021/09/25 17:05:48;;;;;;;;;;;;;;;;;;10444472;28;20469;-71
2021/09/25 17:10:52;;;;;;;7.50;3.67;;;;;;;;;;10441625;28;20351;-72
2021/09/25 17:15:55;;;;;;;10.07;4.28;;;;;;;;;;10440424;28;20065;-73
2021/09/25 17:20:58;;;;;;;6.00;3.85;;;;;;;;;;10443908;28;20049;-73
2021/09/25 17:26:01;;;;;;;;;;;;;;;;;;10441319;28;20053;-71
2021/09/25 17:31:05;;;;;;;6.53;3.67;;;;;;;;;;10434183;28;20423;-73
2021/09/25 17:36:09;;;;;;;9.00;4.40;;;;;;;;;;10441803;28;20044;-74
2021/09/25 17:41:12;;;;;;;8.70;4.82;;;;;;;;;;10435636;28;20049;-74
2021/09/25 17:46:17;;;;;;;11.85;4.90;;;;;;;;;;10440719;28;20049;-72
2021/09/25 17:51:19;;;;;;;11.85;4.97;;;;;;;;;;10439905;28;20068;-74
2021/09/25 17:56:22;;;;;;;13.30;5.82;;;;;;;;;;10437882;28;20036;-73
2021/09/25 18:01:27;;;;;;;14.98;6.28;;;;;;;;;;10441242;28;20079;-73
2021/09/25 18:06:30;;;;;;;9.40;5.07;;;;;;;;;;10428670;28;20099;-73
2021/09/25 18:11:33;;;;;;;10.57;5.28;;;;;;;;;;10439025;28;20033;-73
2021/09/25 18:16:37;;;;;;;10.88;5.10;;;;;;;;;;10440978;28;20044;-73
2021/09/25 18:21:40;;;;;;;9.45;5.45;;;;;;;;;;10443722;28;20104;-74
2021/09/25 18:26:43;;;;;;;11.52;5.88;;;;;;;;;;10440446;28;20042;-73
2021/09/25 18:31:48;;;;;;;13.00;6.20;;;;;;;;;;10440662;28;20048;-74
2021/09/25 18:36:50;;;;;;;13.65;6.20;;;;;;;;;;10435841;28;20501;-75
2021/09/25 18:41:53;;;;;;;10.57;5.85;;;;;;;;;;10455235;28;20041;-72
2021/09/25 18:46:58;;;;;;;14.43;6.45;;;;;;;;;;10437673;28;20103;-72
2021/09/25 18:52:00;;;;;;;11.88;6.00;;;;;;;;;;10442043;28;20064;-74
2021/09/25 18:57:03;;;;;;;11.98;6.18;;;;;;;;;;10447532;28;20041;-73
2021/09/25 19:02:07;;;;;;;16.88;6.70;;;;;;;;;;10447973;28;20052;-73
2021/09/25 19:07:11;;;;;;;16.05;8.40;;;;;;;;;;10449462;28;20415;-74
2021/09/25 19:12:13;;;;;;;14.25;6.97;;;;;;;;;;10446846;28;20041;-73
2021/09/25 19:17:18;;;;;;;19.25;7.32;;;;;;;;;;10446786;28;20567;-73
2021/09/25 19:22:21;;;;;;;14.43;6.50;;;;;;;;;;10443738;28;20495;-74
2021/09/25 19:27:23;;;;;;;14.38;7.00;;;;;;;;;;10446294;28;20060;-74
2021/09/25 19:32:28;;;;;;;15.80;7.28;;;;;;;;;;10447475;28;20037;-74
2021/09/25 19:37:30;;;;;;;22.10;11.80;;;;;;;;;;10444045;28;20547;-74
2021/09/25 19:42:33;;;;;;;13.63;7.35;;;;;;;;;;10445340;28;20043;-73
2021/09/25 19:47:39;;;;;;;31.75;12.05;;;;;;;;;;10443801;28;20501;-73
2021/09/25 19:52:42;;;;;;;15.40;6.93;;;;;;;;;;10441844;28;20731;-72
2021/09/25 19:57:44;;;;;;;13.15;6.97;;;;;;;;;;10448058;28;20052;-74
2021/09/25 20:02:49;;;;;;;12.52;6.60;;;;;;;;;;10443771;28;20132;-72
2021/09/25 20:07:52;;;;;;;17.13;8.32;;;;;;;;;;10440770;28;20041;-73
2021/09/25 20:12:55;;;;;;;14.15;6.65;;;;;;;;;;10453776;28;20110;-73
2021/09/25 20:17:59;;;;;;;14.50;7.07;;;;;;;;;;10445484;28;20044;-73
2021/09/25 20:23:03;;;;;;;13.73;7.15;;;;;;;;;;10437698;28;20055;-73
2021/09/25 20:28:06;;;;;;;12.80;6.78;;;;;;;;;;10444157;28;20463;-74
2021/09/25 20:33:10;;;;;;;15.05;7.65;;;;;;;;;;10433205;28;20080;-74
2021/09/25 20:38:13;;;;;;;13.20;6.57;;;;;;;;;;10445619;28;20052;-74
2021/09/25 20:43:15;;;;;;;13.80;7.28;;;;;;;;;;10457053;28;20497;-74
2021/09/25 20:48:20;;;;;;;12.25;6.32;;;;;;;;;;10440423;28;20123;-73
2021/09/25 20:53:22;;;;;;;11.18;5.35;;;;;;;;;;10431079;28;20041;-73
2021/09/25 20:58:26;;;;;;;11.30;6.97;;;;;;;;;;10442491;28;20037;-74
2021/09/25 21:03:31;;;;;;;14.25;7.70;;;;;;;;;;10443300;28;20576;-74
2021/09/25 21:08:34;;;;;;;9.95;5.68;;;;;;;;;;10440054;28;21162;-74
2021/09/25 21:13:38;;;;;;;12.95;6.68;;;;;;;;;;10439040;28;20040;-75
2021/09/25 21:18:43;;;;;;;16.05;7.13;;;;;;;;;;10456257;28;20060;-74
2021/09/25 21:23:47;;;;;;;13.07;7.43;;;;;;;;;;10436848;28;20045;-74
2021/09/25 21:28:50;;;;;;;13.13;7.10;;;;;;;;;;10442084;28;20067;-72
2021/09/25 21:33:54;;;;;;;13.23;6.95;;;;;;;;;;10442049;28;20045;-74
2021/09/25 21:38:57;;;;;;;17.08;6.63;;;;;;;;;;10439452;28;20052;-73
2021/09/25 21:43:59;;;;;;;14.23;7.38;;;;;;;;;;10442522;28;20068;-73
2021/09/25 21:49:04;;;;;;;12.57;6.25;;;;;;;;;;10439363;28;20048;-75
2021/09/25 21:54:06;;;;;;;11.50;6.63;;;;;;;;;;10437285;28;20044;-72
2021/09/25 21:59:10;;;;;;;15.65;8.82;;;;;;;;;;10434782;28;20053;-75
2021/09/25 22:04:15;;;;;;;11.80;7.35;;;;;;;;;;10439185;28;20048;-73
2021/09/25 22:09:20;;;;;;;23.73;12.50;;;;;;;;;;10437056;28;20087;-74
2021/09/25 22:14:23;;;;;;;12.82;6.93;;;;;;;;;;10432045;28;20044;-72
2021/09/25 22:19:27;;;;;;;22.00;10.80;;;;;;;;;;10425227;28;20053;-72
2021/09/25 22:24:30;;;;;;;12.63;6.93;;;;;;;;;;10438689;28;20120;-74
2021/09/25 22:29:33;;;;;;;12.57;7.25;;;;;;;;;;10441208;28;20102;-73
2021/09/25 22:34:38;;;;;;;12.20;7.28;;;;;;;;;;10442935;28;20033;-76
2021/09/25 22:39:41;;;;;;;13.90;7.75;;;;;;;;;;10442328;28;20080;-77
2021/09/25 22:44:44;;;;;;;26.27;14.68;;;;;;;;;;10447148;28;20094;-78
2021/09/25 22:49:48;;;;;;;20.23;10.50;;;;;;;;;;10444881;28;20033;-78
2021/09/25 22:54:51;;;;;;;15.32;7.80;;;;;;;;;;10446478;28;20705;-75
2021/09/25 22:59:54;;;;;;;17.33;8.50;;;;;;;;;;10441996;28;20144;-77
2021/09/25 23:04:58;;;;;;;14.07;7.90;;;;;;;;;;10442766;28;20098;-75
2021/09/25 23:10:02;;;;;;;12.90;7.35;;;;;;;;;;10436423;28;20055;-77
2021/09/25 23:15:05;;;;;;;15.35;7.53;;;;;;;;;;10440384;28;20041;-76
2021/09/25 23:20:12;;;;;;;16.00;8.18;;;;;;;;;;10447017;28;20048;-75
2021/09/25 23:25:16;;;;;;;14.25;7.65;;;;;;;;;;10444802;28;20106;-75
2021/09/25 23:30:19;;;;;;;14.65;8.20;;;;;;;;;;10445777;28;20049;-75
2021/09/25 23:35:23;;;;;;;15.93;8.50;;;;;;;;;;10445365;28;20487;-75
2021/09/25 23:40:29;;;;;;;20.35;9.63;;;;;;;;;;10444326;28;20099;-76
2021/09/25 23:45:32;;;;;;;17.13;9.60;;;;;;;;;;10443741;28;20045;-75
2021/09/25 23:50:37;;;;;;;15.25;8.75;;;;;;;;;;10433873;28;20136;-75
2021/09/25 23:55:40;;;;;;;16.60;8.68;;;;;;;;;;10445850;28;20438;-73
